createdAt,value
2023-01-13T00:01:29.207Z,97909.91
2023-01-13T00:03:56.538Z,97907.31
2023-01-13T00:06:26.009Z,97918.63
2023-01-13T00:08:52.630Z,97915.09
2023-01-13T00:11:20.452Z,97910.75
2023-01-13T00:13:47.279Z,97915.13
2023-01-13T00:16:18.202Z,97909.03
2023-01-13T00:18:45.213Z,97911.69
2023-01-13T00:21:13.029Z,97912.59
2023-01-13T00:23:40.088Z,97916.06
2023-01-13T00:26:08.027Z,97916.94
2023-01-13T00:28:34.602Z,97915.22
2023-01-13T00:31:04.838Z,97919.56
2023-01-13T00:33:31.374Z,97921.34
2023-01-13T00:35:58.598Z,97917.81
2023-01-13T00:38:25.157Z,97915.19
2023-01-13T00:40:58.646Z,97912.50
2023-01-13T00:43:25.838Z,97914.25
2023-01-13T00:45:53.020Z,97911.66
2023-01-13T00:48:20.223Z,97909.09
2023-01-13T00:50:46.764Z,97912.59
2023-01-13T00:53:14.934Z,97911.69
2023-01-13T00:55:41.454Z,97905.59
2023-01-13T00:58:08.001Z,97902.19
2023-01-13T01:00:34.477Z,97901.28
2023-01-13T01:03:00.980Z,97897.81
2023-01-13T01:05:27.470Z,97903.94
2023-01-13T01:07:53.986Z,97901.31
2023-01-13T01:10:20.481Z,97899.56
2023-01-13T01:12:46.978Z,97896.13
2023-01-13T01:15:13.501Z,97888.25
2023-01-13T01:17:40.070Z,97895.19
2023-01-13T01:20:06.833Z,97889.97
2023-01-13T01:22:33.533Z,97884.78
2023-01-13T01:25:00.060Z,97891.75
2023-01-13T01:27:26.625Z,97890.91
2023-01-13T01:29:53.169Z,97883.06
2023-01-13T01:32:19.618Z,97876.09
2023-01-13T01:34:46.084Z,97879.59
2023-01-13T01:37:12.569Z,97877.84
2023-01-13T01:39:45.154Z,97872.56
2023-01-13T01:42:38.996Z,97879.56
2023-01-13T01:45:17.647Z,97876.97
2023-01-13T01:47:45.328Z,97879.56
2023-01-13T01:50:11.996Z,97874.34
2023-01-13T01:52:42.045Z,97889.09
2023-01-13T01:55:17.950Z,97880.44
2023-01-13T01:58:05.928Z,97883.03
2023-01-13T02:00:32.563Z,97876.91
2023-01-13T02:02:59.595Z,97876.03
2023-01-13T02:05:26.363Z,97876.88
2023-01-13T02:07:54.417Z,97876.09
2023-01-13T02:10:23.448Z,97877.84
2023-01-13T02:12:50.923Z,97879.63
2023-01-13T02:15:18.615Z,97877.84
2023-01-13T02:17:51.225Z,97876.13
2023-01-13T02:20:33.099Z,97872.66
2023-01-13T02:23:36.548Z,97873.50
2023-01-13T02:26:03.065Z,97867.38
2023-01-13T02:29:01.922Z,97870.00
2023-01-13T02:31:42.273Z,97868.31
2023-01-13T02:34:11.354Z,97865.72
2023-01-13T02:36:42.056Z,97866.63
2023-01-13T02:39:19.034Z,97869.22
2023-01-13T02:42:07.302Z,97863.13
2023-01-13T02:44:55.825Z,97867.38
2023-01-13T02:47:24.724Z,97856.09
2023-01-13T02:50:04.777Z,97859.53
2023-01-13T02:52:34.148Z,97865.63
2023-01-13T02:55:03.709Z,97862.97
2023-01-13T02:57:32.538Z,97866.47
2023-01-13T02:59:59.318Z,97863.91
2023-01-13T03:02:26.150Z,97865.63
2023-01-13T03:04:54.333Z,97869.09
2023-01-13T03:07:34.644Z,97866.50
2023-01-13T03:10:16.615Z,97863.91
2023-01-13T03:13:02.078Z,97866.56
2023-01-13T03:15:49.261Z,97874.34
2023-01-13T03:18:34.571Z,97876.06
2023-01-13T03:21:07.213Z,97869.13
2023-01-13T03:23:37.492Z,97868.25
2023-01-13T03:26:13.299Z,97872.66
2023-01-13T03:28:42.915Z,97874.41
2023-01-13T03:31:16.007Z,97878.78
2023-01-13T03:33:53.674Z,97879.63
2023-01-13T03:36:23.255Z,97882.25
2023-01-13T03:38:52.869Z,97883.94
2023-01-13T03:41:32.880Z,97884.84
2023-01-13T03:44:24.154Z,97889.16
2023-01-13T03:46:54.496Z,97891.81
2023-01-13T03:49:23.676Z,97894.38
2023-01-13T03:51:54.557Z,97888.28
2023-01-13T03:54:23.418Z,97889.28
2023-01-13T03:56:57.245Z,97889.28
2023-01-13T03:59:25.593Z,97885.84
2023-01-13T04:02:01.243Z,97887.56
2023-01-13T04:04:46.579Z,97886.66
2023-01-13T04:07:18.646Z,97892.78
2023-01-13T04:09:45.115Z,97892.72
2023-01-13T04:12:14.289Z,97895.31
2023-01-13T04:14:41.708Z,97887.50
2023-01-13T04:17:08.195Z,97895.31
2023-01-13T04:19:34.758Z,97891.84
2023-01-13T04:22:01.327Z,97892.75
2023-01-13T04:24:28.139Z,97883.22
2023-01-13T04:26:56.566Z,97891.88
2023-01-13T04:29:23.267Z,97891.88
2023-01-13T04:31:49.794Z,97894.50
2023-01-13T04:34:16.394Z,97895.31
2023-01-13T04:36:43.004Z,97895.28
2023-01-13T04:39:09.502Z,97890.03
2023-01-13T04:42:08.373Z,97897.00
2023-01-13T04:44:37.470Z,97900.53
2023-01-13T04:47:04.471Z,97903.97
2023-01-13T04:49:31.489Z,97903.97
2023-01-13T04:51:58.027Z,97906.59
2023-01-13T04:54:24.566Z,97910.97
2023-01-13T04:56:51.060Z,97902.19
2023-01-13T04:59:17.577Z,97911.78
2023-01-13T05:01:44.118Z,97917.03
2023-01-13T05:04:10.790Z,97917.03
2023-01-13T05:06:37.213Z,97918.81
2023-01-13T05:09:03.796Z,97922.28
2023-01-13T05:11:48.988Z,97919.63
2023-01-13T05:14:34.998Z,97918.81
2023-01-13T05:17:01.664Z,97918.72
2023-01-13T05:19:29.023Z,97918.72
2023-01-13T05:22:14.187Z,97924.97
2023-01-13T05:24:59.088Z,97930.13
2023-01-13T05:27:25.810Z,97926.59
2023-01-13T05:29:52.326Z,97921.34
2023-01-13T05:32:18.872Z,97928.28
2023-01-13T05:34:48.160Z,97921.25
2023-01-13T05:37:15.048Z,97923.91
2023-01-13T05:40:00.302Z,97926.44
2023-01-13T05:42:48.108Z,97930.81
2023-01-13T05:45:14.772Z,97937.78
2023-01-13T05:47:41.318Z,97929.91
2023-01-13T05:50:08.738Z,97939.47
2023-01-13T05:52:39.419Z,97941.22
2023-01-13T05:55:06.313Z,97936.00
2023-01-13T05:57:32.914Z,97937.66
2023-01-13T05:59:59.592Z,97942.94
2023-01-13T06:02:26.739Z,97941.19
2023-01-13T06:04:53.511Z,97936.72
2023-01-13T06:07:20.079Z,97945.34
2023-01-13T06:09:46.658Z,97948.94
2023-01-13T06:12:13.589Z,97941.00
2023-01-13T06:14:40.142Z,97934.09
2023-01-13T06:17:11.004Z,97943.72
2023-01-13T06:19:37.521Z,97951.56
2023-01-13T06:22:13.655Z,97954.16
2023-01-13T06:24:40.270Z,97948.94
2023-01-13T06:27:07.886Z,97947.19
2023-01-13T06:29:34.494Z,97955.00
2023-01-13T06:32:06.355Z,97955.88
2023-01-13T06:34:34.043Z,97958.56
2023-01-13T06:37:01.532Z,97963.78
2023-01-13T06:39:31.101Z,97964.59
2023-01-13T06:42:17.206Z,97962.91
2023-01-13T06:44:44.476Z,97962.06
2023-01-13T06:47:11.092Z,97968.09
2023-01-13T06:49:37.580Z,97974.16
2023-01-13T06:52:04.170Z,97974.16
2023-01-13T06:54:30.870Z,97968.84
2023-01-13T06:56:57.469Z,97968.09
2023-01-13T06:59:25.267Z,97974.06
2023-01-13T07:01:51.908Z,97972.31
2023-01-13T07:04:19.201Z,97973.13
2023-01-13T07:06:45.783Z,97970.41
2023-01-13T07:09:12.572Z,97970.47
2023-01-13T07:11:39.327Z,97965.09
2023-01-13T07:14:38.539Z,97969.50
2023-01-13T07:17:05.663Z,97971.91
2023-01-13T07:19:35.008Z,97966.66
2023-01-13T07:22:01.678Z,97970.25
2023-01-13T07:24:28.554Z,97967.53
2023-01-13T07:26:55.063Z,97970.91
2023-01-13T07:29:21.550Z,97979.66
2023-01-13T07:31:49.984Z,97974.28
2023-01-13T07:34:17.099Z,97972.50
2023-01-13T07:36:43.745Z,97980.28
2023-01-13T07:39:10.466Z,97982.81
2023-01-13T07:41:55.940Z,97976.56
2023-01-13T07:44:22.504Z,97974.91
2023-01-13T07:46:49.180Z,97978.19
2023-01-13T07:49:15.915Z,97973.59
2023-01-13T07:51:43.160Z,97971.94
2023-01-13T07:54:09.678Z,97971.13
2023-01-13T07:56:36.361Z,97974.66
2023-01-13T07:59:03.663Z,97977.28
2023-01-13T08:01:33.839Z,97972.09
2023-01-13T08:04:00.444Z,97980.75
2023-01-13T08:06:26.985Z,97983.22
2023-01-13T08:08:53.957Z,97987.56
2023-01-13T08:11:23.343Z,97983.97
2023-01-13T08:13:50.071Z,97983.00
2023-01-13T08:16:16.883Z,97983.00
2023-01-13T08:18:44.276Z,97984.63
2023-01-13T08:21:14.872Z,97982.75
2023-01-13T08:23:42.306Z,97987.97
2023-01-13T08:26:10.596Z,97987.94
2023-01-13T08:28:37.086Z,97984.34
2023-01-13T08:31:06.231Z,97981.63
2023-01-13T08:33:33.378Z,97983.28
2023-01-13T08:36:02.659Z,97977.22
2023-01-13T08:38:29.328Z,97976.28
2023-01-13T08:40:55.909Z,97968.47
2023-01-13T08:43:22.533Z,97970.25
2023-01-13T08:46:00.048Z,97978.16
2023-01-13T08:48:28.246Z,97977.50
2023-01-13T08:51:01.693Z,97985.31
2023-01-13T08:53:28.197Z,97976.59
2023-01-13T08:55:54.765Z,97975.69
2023-01-13T08:58:21.315Z,97966.88
2023-01-13T09:00:47.796Z,97975.47
2023-01-13T09:03:14.379Z,97978.94
2023-01-13T09:05:40.857Z,97975.31
2023-01-13T09:08:10.087Z,97971.66
2023-01-13T09:10:37.070Z,97969.47
2023-01-13T09:13:12.700Z,97968.31
2023-01-13T09:15:44.140Z,97968.94
2023-01-13T09:18:11.386Z,97965.22
2023-01-13T09:20:38.017Z,97966.94
2023-01-13T09:23:05.656Z,97963.19
2023-01-13T09:25:32.666Z,97955.13
2023-01-13T09:27:59.244Z,97951.13
2023-01-13T09:30:25.831Z,97942.03
2023-01-13T09:33:12.296Z,97945.38
2023-01-13T09:35:38.925Z,97946.38
2023-01-13T09:38:06.340Z,97954.34
2023-01-13T09:40:32.944Z,97946.66
2023-01-13T09:43:21.582Z,97943.03
2023-01-13T09:46:00.767Z,97938.78
2023-01-13T09:48:35.582Z,97941.66
2023-01-13T09:51:21.076Z,97933.72
2023-01-13T09:53:47.665Z,97934.50
2023-01-13T09:56:14.356Z,97923.00
2023-01-13T09:58:41.010Z,97927.19
2023-01-13T10:01:26.001Z,97925.34
2023-01-13T10:03:53.609Z,97920.81
2023-01-13T10:06:42.387Z,97912.88
2023-01-13T10:09:14.427Z,97908.31
2023-01-13T10:12:01.869Z,97907.16
2023-01-13T10:14:32.420Z,97900.13
2023-01-13T10:17:04.785Z,97906.09
2023-01-13T10:19:34.833Z,97908.69
2023-01-13T10:22:01.344Z,97905.28
2023-01-13T10:24:27.882Z,97892.59
2023-01-13T10:26:57.474Z,97905.75
2023-01-13T10:29:27.237Z,97901.47
2023-01-13T10:31:54.773Z,97892.47
2023-01-13T10:34:22.636Z,97896.88
2023-01-13T10:37:08.219Z,97898.16
2023-01-13T10:39:42.307Z,97895.53
2023-01-13T10:42:14.021Z,97892.13
2023-01-13T10:45:08.048Z,97885.03
2023-01-13T10:47:35.774Z,97893.22
2023-01-13T10:50:02.453Z,97885.09
2023-01-13T10:52:30.617Z,97887.94
2023-01-13T10:54:57.291Z,97879.56
2023-01-13T10:57:25.163Z,97878.78
2023-01-13T10:59:53.113Z,97884.88
2023-01-13T11:02:25.690Z,97892.56
2023-01-13T11:04:53.035Z,97889.84
2023-01-13T11:07:29.428Z,97887.88
2023-01-13T11:10:17.824Z,97878.25
2023-01-13T11:12:48.423Z,97873.91
2023-01-13T11:15:22.060Z,97868.41
2023-01-13T11:18:09.429Z,97867.41
2023-01-13T11:20:41.467Z,97859.69
2023-01-13T11:23:29.276Z,97861.53
2023-01-13T11:26:02.989Z,97858.88
2023-01-13T11:28:29.515Z,97866.78
2023-01-13T11:31:05.373Z,97866.28
2023-01-13T11:33:32.002Z,97865.09
2023-01-13T11:35:58.524Z,97860.84
2023-01-13T11:38:57.178Z,97868.19
2023-01-13T11:41:27.645Z,97859.28
2023-01-13T11:43:59.412Z,97862.00
2023-01-13T11:46:30.675Z,97863.88
2023-01-13T11:48:57.362Z,97858.84
2023-01-13T11:51:23.995Z,97865.19
2023-01-13T11:53:50.472Z,97862.84
2023-01-13T11:56:16.981Z,97852.28
2023-01-13T11:58:51.113Z,97854.06
2023-01-13T12:01:22.973Z,97857.31
2023-01-13T12:04:02.175Z,97852.91
2023-01-13T12:06:36.780Z,97852.97
2023-01-13T12:09:14.305Z,97853.22
2023-01-13T12:12:05.990Z,97847.25
2023-01-13T12:14:35.298Z,97848.03
2023-01-13T12:17:02.768Z,97841.94
2023-01-13T12:19:29.903Z,97840.31
2023-01-13T12:21:56.458Z,97844.06
2023-01-13T12:24:33.537Z,97855.59
2023-01-13T12:27:06.592Z,97846.88
2023-01-13T12:29:36.364Z,97853.00
2023-01-13T12:32:24.629Z,97841.56
2023-01-13T12:35:00.509Z,97837.16
2023-01-13T12:38:18.119Z,97837.16
2023-01-13T12:41:23.938Z,97847.47
2023-01-13T12:44:15.216Z,97847.41
2023-01-13T12:46:46.880Z,97849.06
2023-01-13T12:49:24.058Z,97857.91
2023-01-13T12:51:56.504Z,97847.34
2023-01-13T12:55:08.018Z,97847.34
2023-01-13T13:00:21.450Z,97851.94
2023-01-13T13:03:07.426Z,97860.78
2023-01-13T13:06:04.511Z,97852.97
2023-01-13T13:08:41.715Z,97859.41
2023-01-13T13:11:37.537Z,97863.97
2023-01-13T13:14:14.334Z,97858.72
2023-01-13T13:16:51.209Z,97857.81
2023-01-13T13:19:21.377Z,97860.44
2023-01-13T13:22:06.677Z,97862.13
2023-01-13T13:24:33.218Z,97858.88
2023-01-13T13:27:16.644Z,97864.03
2023-01-13T13:29:43.505Z,97863.13
2023-01-13T13:32:20.896Z,97864.84
2023-01-13T13:35:05.936Z,97865.81
2023-01-13T13:38:03.481Z,97865.03
2023-01-13T13:40:50.980Z,97868.59
2023-01-13T13:43:38.136Z,97865.16
2023-01-13T13:46:40.185Z,97873.13
2023-01-13T13:49:09.403Z,97868.59
2023-01-13T13:51:41.949Z,97868.44
2023-01-13T13:54:10.576Z,97872.13
2023-01-13T13:56:40.548Z,97876.53
2023-01-13T13:59:09.828Z,97879.06
2023-01-13T14:01:37.937Z,97884.28
2023-01-13T14:04:27.519Z,97886.03
2023-01-13T14:06:58.145Z,97881.06
2023-01-13T14:09:25.622Z,97883.91
2023-01-13T14:11:57.299Z,97881.19
2023-01-13T14:14:25.109Z,97885.59
2023-01-13T14:16:52.192Z,97882.97
2023-01-13T14:19:44.303Z,97873.38
2023-01-13T14:22:16.373Z,97873.56
2023-01-13T14:24:47.103Z,97883.13
2023-01-13T14:27:16.112Z,97879.69
2023-01-13T14:29:42.952Z,97880.63
2023-01-13T14:32:13.145Z,97892.03
2023-01-13T14:34:40.150Z,97891.09
2023-01-13T14:37:22.785Z,97885.09
2023-01-13T14:39:49.331Z,97889.53
2023-01-13T14:42:17.052Z,97887.66
2023-01-13T14:44:46.876Z,97887.69
2023-01-13T14:47:28.063Z,97888.69
2023-01-13T14:50:06.228Z,97893.13
2023-01-13T14:52:34.556Z,97886.19
2023-01-13T14:55:10.325Z,97889.75
2023-01-13T14:57:39.530Z,97892.38
2023-01-13T15:00:23.889Z,97890.63
2023-01-13T15:02:53.650Z,97890.63
2023-01-13T15:05:20.255Z,97884.72
2023-01-13T15:07:49.758Z,97889.06
2023-01-13T15:10:39.382Z,97887.41
2023-01-13T15:13:10.790Z,97887.28
2023-01-13T15:15:39.355Z,97887.34
2023-01-13T15:18:11.156Z,97889.16
2023-01-13T15:20:38.953Z,97891.00
2023-01-13T15:23:05.491Z,97889.25
2023-01-13T15:25:34.142Z,97892.75
2023-01-13T15:28:00.870Z,97884.97
2023-01-13T15:30:27.834Z,97882.34
2023-01-13T15:32:55.426Z,97892.03
2023-01-13T15:35:23.075Z,97887.75
2023-01-13T15:37:50.001Z,97887.78
2023-01-13T15:40:18.967Z,97884.25
2023-01-13T15:43:04.078Z,97879.91
2023-01-13T15:45:49.947Z,97886.00
2023-01-13T15:48:16.598Z,97873.88
2023-01-13T15:50:43.108Z,97878.25
2023-01-13T15:53:13.248Z,97880.81
2023-01-13T15:55:42.732Z,97886.25
2023-01-13T15:58:16.401Z,97882.78
2023-01-13T16:00:43.021Z,97893.31
2023-01-13T16:03:13.375Z,97883.69
2023-01-13T16:05:40.635Z,97886.38
2023-01-13T16:08:25.058Z,97890.94
2023-01-13T16:10:57.361Z,97885.66
2023-01-13T16:13:23.846Z,97885.81
2023-01-13T16:15:50.512Z,97878.84
2023-01-13T16:18:18.455Z,97890.31
2023-01-13T16:20:45.505Z,97887.69
2023-01-13T16:23:12.328Z,97881.50
2023-01-13T16:25:39.549Z,97888.47
2023-01-13T16:28:06.274Z,97887.63
2023-01-13T16:30:37.013Z,97888.53
2023-01-13T16:33:03.833Z,97878.97
2023-01-13T16:35:32.105Z,97882.41
2023-01-13T16:37:59.899Z,97883.38
2023-01-13T16:40:34.219Z,97883.31
2023-01-13T16:43:03.255Z,97883.38
2023-01-13T16:45:30.427Z,97878.94
2023-01-13T16:47:57.067Z,97876.31
2023-01-13T16:50:37.101Z,97877.38
2023-01-13T16:53:04.427Z,97872.09
2023-01-13T16:55:31.043Z,97883.47
2023-01-13T16:57:58.002Z,97875.69
2023-01-13T17:00:24.708Z,97879.22
2023-01-13T17:02:51.319Z,97877.41
2023-01-13T17:05:17.987Z,97880.03
2023-01-13T17:07:45.390Z,97873.97
2023-01-13T17:10:13.987Z,97873.06
2023-01-13T17:12:40.469Z,97875.81
2023-01-13T17:15:07.362Z,97873.19
2023-01-13T17:17:33.844Z,97868.91
2023-01-13T17:20:00.431Z,97874.06
2023-01-13T17:22:27.014Z,97877.50
2023-01-13T17:24:53.547Z,97877.50
2023-01-13T17:27:21.256Z,97870.56
2023-01-13T17:29:47.784Z,97875.81
2023-01-13T17:32:15.442Z,97870.63
2023-01-13T17:34:42.117Z,97871.63
2023-01-13T17:37:09.452Z,97868.22
2023-01-13T17:39:35.988Z,97877.03
2023-01-13T17:42:02.498Z,97878.84
2023-01-13T17:44:28.955Z,97876.38
2023-01-13T17:46:55.471Z,97871.84
2023-01-13T17:49:22.095Z,97866.72
2023-01-13T17:51:48.957Z,97863.25
2023-01-13T17:54:17.715Z,97864.16
2023-01-13T17:56:44.560Z,97865.94
2023-01-13T17:59:11.804Z,97866.88
2023-01-13T18:01:38.812Z,97873.88
2023-01-13T18:04:08.913Z,97866.88
2023-01-13T18:06:38.106Z,97867.78
2023-01-13T18:09:04.652Z,97854.00
2023-01-13T18:11:31.190Z,97860.94
2023-01-13T18:13:57.739Z,97861.91
2023-01-13T18:16:25.171Z,97864.47
2023-01-13T18:18:53.660Z,97863.63
2023-01-13T18:21:43.139Z,97858.50
2023-01-13T18:24:34.754Z,97856.72
2023-01-13T18:27:22.654Z,97861.16
2023-01-13T18:29:55.729Z,97859.44
2023-01-13T18:32:23.012Z,97855.16
2023-01-13T18:34:53.922Z,97857.72
2023-01-13T18:37:25.595Z,97856.88
2023-01-13T18:39:52.114Z,97852.44
2023-01-13T18:42:37.197Z,97856.84
2023-01-13T18:45:04.010Z,97855.13
2023-01-13T18:47:30.939Z,97858.59
2023-01-13T18:49:57.500Z,97855.97
2023-01-13T18:52:24.505Z,97857.84
2023-01-13T18:54:51.118Z,97857.84
2023-01-13T18:57:17.921Z,97861.41
2023-01-13T18:59:45.132Z,97854.47
2023-01-13T19:02:21.498Z,97856.19
2023-01-13T19:04:48.200Z,97856.16
2023-01-13T19:07:22.292Z,97859.75
2023-01-13T19:09:52.013Z,97857.97
2023-01-13T19:12:26.147Z,97856.34
2023-01-13T19:14:53.595Z,97855.47
2023-01-13T19:17:20.740Z,97852.94
2023-01-13T19:19:49.012Z,97849.56
2023-01-13T19:22:17.263Z,97853.22
2023-01-13T19:24:43.893Z,97853.31
2023-01-13T19:27:11.955Z,97854.25
2023-01-13T19:29:38.436Z,97862.03
2023-01-13T19:32:11.837Z,97859.63
2023-01-13T19:34:38.491Z,97856.97
2023-01-13T19:37:09.441Z,97853.50
2023-01-13T19:39:42.693Z,97849.16
2023-01-13T19:42:29.534Z,97851.06
2023-01-13T19:45:15.073Z,97855.44
2023-01-13T19:47:45.990Z,97854.56
2023-01-13T19:50:13.680Z,97855.44
2023-01-13T19:52:40.472Z,97863.34
2023-01-13T19:55:07.180Z,97857.13
2023-01-13T19:57:33.720Z,97855.44
2023-01-13T20:00:00.273Z,97860.66
2023-01-13T20:02:31.712Z,97856.25
2023-01-13T20:04:59.578Z,97858.94
2023-01-13T20:07:27.329Z,97852.72
2023-01-13T20:09:54.020Z,97860.53
2023-01-13T20:12:21.193Z,97856.97
2023-01-13T20:14:47.920Z,97847.50
2023-01-13T20:17:15.665Z,97857.09
2023-01-13T20:19:42.493Z,97854.56
2023-01-13T20:22:09.267Z,97855.44
2023-01-13T20:24:35.912Z,97851.91
2023-01-13T20:27:02.596Z,97854.47
2023-01-13T20:29:29.700Z,97847.47
2023-01-13T20:31:57.486Z,97853.53
2023-01-13T20:34:24.632Z,97850.97
2023-01-13T20:36:51.910Z,97852.81
2023-01-13T20:39:22.842Z,97851.09
2023-01-13T20:42:08.117Z,97846.78
2023-01-13T20:44:34.721Z,97853.78
2023-01-13T20:47:01.354Z,97853.84
2023-01-13T20:49:27.894Z,97843.38
2023-01-13T20:51:55.077Z,97848.69
2023-01-13T20:54:22.103Z,97842.69
2023-01-13T20:56:48.921Z,97847.06
2023-01-13T20:59:15.918Z,97851.56
2023-01-13T21:01:42.675Z,97847.19
2023-01-13T21:04:09.659Z,97841.22
2023-01-13T21:06:36.273Z,97847.47
2023-01-13T21:09:02.817Z,97844.91
2023-01-13T21:11:48.035Z,97854.56
2023-01-13T21:14:34.271Z,97848.66
2023-01-13T21:17:00.807Z,97857.25
2023-01-13T21:19:27.379Z,97863.31
2023-01-13T21:21:53.977Z,97865.91
2023-01-13T21:24:20.432Z,97860.69
2023-01-13T21:26:48.746Z,97866.81
2023-01-13T21:29:17.553Z,97856.28
2023-01-13T21:31:44.187Z,97853.69
2023-01-13T21:34:11.093Z,97847.63
2023-01-13T21:36:37.691Z,97859.88
2023-01-13T21:39:05.006Z,97859.09
2023-01-13T21:41:50.123Z,97850.44
2023-01-13T21:44:36.198Z,97847.81
2023-01-13T21:47:21.127Z,97852.22
2023-01-13T21:49:47.659Z,97852.19
2023-01-13T21:52:14.840Z,97847.81
2023-01-13T21:55:01.578Z,97846.19
2023-01-13T21:57:28.086Z,97854.09
2023-01-13T21:59:54.542Z,97852.41
2023-01-13T22:05:19.526Z,97849.94
2023-01-13T22:07:46.107Z,97847.25
2023-01-13T22:10:17.346Z,97841.19
2023-01-13T22:12:43.983Z,97846.50
2023-01-13T22:15:11.647Z,97853.47
2023-01-13T22:17:38.172Z,97847.34
2023-01-13T22:20:04.912Z,97847.31
2023-01-13T22:22:36.699Z,97842.06
2023-01-13T22:25:04.873Z,97842.03
2023-01-13T22:27:31.383Z,97841.09
2023-01-13T22:29:59.084Z,97840.19
2023-01-13T22:32:25.608Z,97847.09
2023-01-13T22:34:52.024Z,97848.81
2023-01-13T22:37:24.625Z,97851.34
2023-01-13T22:39:51.125Z,97847.00
2023-01-13T22:42:27.291Z,97849.53
2023-01-13T22:44:53.892Z,97839.94
2023-01-13T22:50:07.069Z,97849.56
2023-01-13T22:52:36.479Z,97844.28
2023-01-13T22:55:03.189Z,97846.84
2023-01-13T22:57:35.626Z,97846.81
2023-01-13T23:00:05.889Z,97844.16
2023-01-13T23:02:34.663Z,97844.22
2023-01-13T23:05:01.502Z,97837.38
2023-01-13T23:07:28.085Z,97835.66
2023-01-13T23:09:54.529Z,97832.09
2023-01-13T23:12:21.042Z,97835.56
2023-01-13T23:14:47.497Z,97840.78
2023-01-13T23:17:14.021Z,97835.59
2023-01-13T23:19:40.495Z,97837.47
2023-01-13T23:22:06.995Z,97834.09
2023-01-13T23:24:33.616Z,97829.78
2023-01-13T23:29:55.084Z,97840.13
2023-01-13T23:32:22.507Z,97840.25
2023-01-13T23:34:49.048Z,97844.59
2023-01-13T23:37:15.590Z,97845.38
2023-01-13T23:39:42.157Z,97841.81
2023-01-13T23:42:08.676Z,97842.78
2023-01-13T23:44:35.187Z,97839.44
2023-01-13T23:47:01.913Z,97838.50
2023-01-13T23:49:28.372Z,97836.84
2023-01-13T23:51:54.927Z,97836.88
2023-01-13T23:54:21.446Z,97840.34
2023-01-13T23:56:49.807Z,97840.34
2023-01-13T23:59:16.342Z,97843.81
